Time;durP1;ratioP1;P1;durP2;ratioP2;P2;SDS_P1;SDS_P2;PMS_P1;PMS_P2;Temp;Humidity;BMP_temperature;BMP_pressure;BME280_temperature;BME280_humidity;BME280_pressure;Samples;Min_cycle;Max_cycle;Signal;HPM_P1;HPM_P2
2023/07/29 00:00:46;;;;;;;6.07;1.63;;;;;;;27.86;52.10;96489.63;5015602;28;20059;-31
2023/07/29 00:03:14;;;;;;;6.47;1.65;;;;;;;27.87;51.88;96485.56;5015451;28;20057;-29
2023/07/29 00:05:41;;;;;;;4.20;1.70;;;;;;;27.74;52.55;96478.00;5015489;28;20037;-30
2023/07/29 00:08:07;;;;;;;4.65;1.50;;;;;;;27.85;52.34;96479.78;5015277;28;20052;-30
2023/07/29 00:10:35;;;;;;;6.13;1.90;;;;;;;27.82;52.52;96472.50;5015358;28;20018;-29
2023/07/29 00:13:00;;;;;;;6.82;2.00;;;;;;;27.88;52.02;96473.13;5015897;28;20388;-29
2023/07/29 00:15:26;;;;;;;6.60;1.98;;;;;;;27.91;52.26;96466.47;5015195;28;20109;-29
2023/07/29 00:17:51;;;;;;;4.03;1.73;;;;;;;27.78;52.53;96469.31;5015075;28;20469;-30
2023/07/29 00:20:17;;;;;;;3.78;1.60;;;;;;;27.83;52.40;96468.41;5015235;28;20025;-29
2023/07/29 00:22:43;;;;;;;5.20;1.55;;;;;;;27.74;52.78;96457.72;5015094;28;20087;-30
2023/07/29 00:25:08;;;;;;;4.57;1.42;;;;;;;27.78;52.66;96458.16;5015123;28;20041;-29
2023/07/29 00:27:34;;;;;;;4.43;1.80;;;;;;;27.61;53.41;96460.56;5015234;28;20014;-29
2023/07/29 00:29:59;;;;;;;4.20;1.55;;;;;;;27.63;53.03;96455.19;5015160;28;20641;-30
2023/07/29 00:32:27;;;;;;;6.22;1.73;;;;;;;27.69;53.11;96453.06;5014824;28;20389;-30
2023/07/29 00:34:52;;;;;;;6.80;1.65;;;;;;;27.65;52.95;96455.41;5014931;28;20029;-29
2023/07/29 00:37:18;;;;;;;7.05;2.00;;;;;;;27.71;52.73;96458.81;5015797;28;20032;-29
2023/07/29 00:39:43;;;;;;;5.32;1.52;;;;;;;27.67;53.54;96445.22;5021269;28;20014;-31
2023/07/29 00:42:08;;;;;;;5.07;1.48;;;;;;;27.78;52.93;96441.44;5014707;28;20030;-31
2023/07/29 00:44:34;;;;;;;8.60;1.75;;;;;;;27.82;52.92;96450.19;5014675;28;20381;-29
2023/07/29 00:47:02;;;;;;;5.70;1.85;;;;;;;27.68;52.84;96443.19;5014625;28;20108;-29
2023/07/29 00:49:28;;;;;;;5.03;1.70;;;;;;;27.86;52.49;96443.00;5014539;28;20026;-29
2023/07/29 00:51:53;;;;;;;5.15;1.58;;;;;;;27.56;53.39;96431.56;5014846;28;20033;-29
2023/07/29 00:54:19;;;;;;;2.95;1.50;;;;;;;27.79;52.90;96438.13;5014517;28;20033;-29
2023/07/29 00:56:45;;;;;;;6.25;2.33;;;;;;;27.69;53.27;96433.53;5022362;28;20018;-29
2023/07/29 00:59:11;;;;;;;6.25;1.75;;;;;;;27.73;52.86;96436.72;5014331;28;20021;-29
2023/07/29 01:01:36;;;;;;;4.47;1.60;;;;;;;27.77;52.56;96437.91;5014264;28;20433;-29
2023/07/29 01:04:02;;;;;;;5.13;1.85;;;;;;;27.76;52.69;96444.00;5014479;28;20014;-29
2023/07/29 01:06:53;;;;;;;5.88;2.13;;;;;;;27.79;52.22;96440.91;5014419;28;20022;-29
2023/07/29 01:09:45;;;;;;;4.53;1.80;;;;;;;27.59;52.87;96440.84;5014521;28;20025;-29
2023/07/29 01:12:22;;;;;;;2.42;1.40;;;;;;;27.80;52.45;96444.44;5014311;28;20033;-29
2023/07/29 01:15:09;;;;;;;6.35;1.50;;;;;;;27.91;52.40;96440.63;5014292;28;20076;-29
2023/07/29 01:17:49;;;;;;;7.32;1.50;;;;;;;27.80;52.36;96444.44;5014356;28;20028;-30
2023/07/29 01:20:17;;;;;;;5.75;1.80;;;;;;;27.80;52.76;96447.22;5014201;28;20021;-29
2023/07/29 01:22:43;;;;;;;3.70;1.35;;;;;;;27.68;53.17;96441.16;5014347;28;20037;-29
2023/07/29 01:25:09;;;;;;;5.85;1.45;;;;;;;27.77;52.44;96437.16;5013801;28;20524;-30
2023/07/29 01:27:35;;;;;;;3.78;1.50;;;;;;;27.84;52.05;96442.03;5014086;28;20026;-29
2023/07/29 01:30:02;;;;;;;7.22;1.80;;;;;;;27.71;52.66;96442.09;5013939;28;20049;-29
2023/07/29 01:32:31;;;;;;;2.47;1.50;;;;;;;27.84;52.43;96444.84;5013927;28;20024;-29
2023/07/29 01:35:00;;;;;;;3.97;1.60;;;;;;;27.76;52.82;96435.66;5014188;28;20036;-29
2023/07/29 01:37:27;;;;;;;4.95;1.55;;;;;;;27.64;53.68;96428.84;5014094;28;20108;-30
2023/07/29 01:39:58;;;;;;;5.65;1.58;;;;;;;27.77;52.56;96437.16;5014020;28;20530;-29
2023/07/29 01:42:24;;;;;;;4.22;1.50;;;;;;;27.70;52.86;96421.09;5012510;28;20477;-30
2023/07/29 01:44:50;;;;;;;3.13;1.50;;;;;;;27.77;52.50;96426.75;5013884;28;20059;-29
2023/07/29 01:47:16;;;;;;;6.18;1.40;;;;;;;27.76;53.04;96430.09;5013336;28;20068;-29
2023/07/29 01:49:41;;;;;;;4.07;1.48;;;;;;;27.90;52.07;96431.53;5012235;28;20037;-29
2023/07/29 01:52:07;;;;;;;4.07;1.45;;;;;;;27.67;52.75;96433.34;5013825;28;20032;-29
2023/07/29 01:54:32;;;;;;;5.25;1.85;;;;;;;27.59;53.44;96438.06;5013345;28;20129;-29
2023/07/29 01:56:58;;;;;;;3.28;1.50;;;;;;;27.64;53.51;96432.38;5013688;28;20025;-30
2023/07/29 01:59:23;;;;;;;5.85;1.70;;;;;;;27.57;53.61;96421.88;5013596;28;20454;-29
2023/07/29 02:01:49;;;;;;;4.75;1.67;;;;;;;27.83;52.92;96426.59;5013436;28;20060;-29
2023/07/29 02:04:15;;;;;;;3.40;1.45;;;;;;;27.66;53.34;96426.25;5013518;28;20441;-29
2023/07/29 02:06:40;;;;;;;6.65;2.00;;;;;;;27.81;52.94;96413.25;5013474;28;20033;-29
2023/07/29 02:09:06;;;;;;;4.57;1.83;;;;;;;27.78;52.60;96416.34;5013444;28;20390;-29
2023/07/29 02:11:31;;;;;;;4.90;1.65;;;;;;;27.82;52.43;96422.31;5011853;28;20377;-29
2023/07/29 02:13:57;;;;;;;7.13;2.33;;;;;;;27.66;53.20;96429.81;5013318;28;20044;-30
2023/07/29 02:16:22;;;;;;;4.80;1.80;;;;;;;27.65;53.02;96427.56;5013266;28;20032;-30
2023/07/29 02:18:49;;;;;;;5.35;1.83;;;;;;;27.74;52.84;96424.28;5013411;28;20061;-30
2023/07/29 02:21:15;;;;;;;5.80;1.70;;;;;;;27.87;52.63;96427.03;5013503;28;20028;-29
2023/07/29 02:23:40;;;;;;;6.38;1.80;;;;;;;27.83;52.76;96429.41;5013153;28;20029;-29
2023/07/29 02:26:06;;;;;;;3.92;1.50;;;;;;;27.48;53.45;96420.28;5013542;28;20080;-30
2023/07/29 02:28:31;;;;;;;4.25;1.92;;;;;;;27.48;53.68;96423.06;5013220;28;20037;-29
2023/07/29 02:31:14;;;;;;;4.05;1.80;;;;;;;27.73;52.54;96426.34;5013136;28;20026;-30
2023/07/29 02:33:40;;;;;;;4.50;1.52;;;;;;;27.68;52.67;96426.47;5013513;28;20026;-29
2023/07/29 02:36:05;;;;;;;5.10;1.90;;;;;;;27.54;53.35;96426.50;5012822;28;20390;-28
2023/07/29 02:38:30;;;;;;;4.93;1.80;;;;;;;27.66;53.05;96421.44;5020280;28;20020;-29
2023/07/29 02:40:56;;;;;;;4.97;1.67;;;;;;;27.58;53.35;96422.63;5012991;28;20026;-29
2023/07/29 02:43:21;;;;;;;4.93;1.73;;;;;;;27.56;52.90;96420.41;5013102;28;20461;-30
2023/07/29 02:45:47;;;;;;;4.93;1.80;;;;;;;27.53;53.00;96413.84;5013121;28;20022;-29
2023/07/29 02:48:12;;;;;;;7.05;1.80;;;;;;;27.49;53.13;96413.41;5012721;28;20398;-29
2023/07/29 02:50:38;;;;;;;5.10;1.92;;;;;;;27.33;53.15;96420.09;5013155;28;20429;-29
2023/07/29 02:53:03;;;;;;;2.97;1.63;;;;;;;27.55;52.25;96421.66;5012879;28;20026;-29
2023/07/29 02:55:28;;;;;;;3.97;1.80;;;;;;;27.54;52.27;96418.13;5012917;28;20017;-29
2023/07/29 02:57:54;;;;;;;6.43;1.92;;;;;;;27.65;52.50;96421.97;5013135;28;20109;-31
2023/07/29 03:00:19;;;;;;;5.20;2.05;;;;;;;27.62;52.73;96425.84;5012914;28;20024;-29
2023/07/29 03:02:45;;;;;;;3.60;1.90;;;;;;;27.51;52.45;96424.78;5012997;28;20028;-29
2023/07/29 03:05:10;;;;;;;3.53;1.70;;;;;;;27.45;52.96;96432.50;5013075;28;20479;-29
2023/07/29 03:07:36;;;;;;;4.22;1.75;;;;;;;27.61;51.95;96432.69;5013045;28;20018;-29
2023/07/29 03:10:01;;;;;;;2.10;1.88;;;;;;;27.52;52.58;96428.31;5012658;28;20065;-29
2023/07/29 03:12:27;;;;;;;5.43;1.58;;;;;;;27.46;52.56;96428.41;5012848;28;20033;-30
2023/07/29 03:14:52;;;;;;;3.88;2.00;;;;;;;27.61;51.80;96432.69;5013037;28;20022;-29
2023/07/29 03:17:18;;;;;;;5.13;1.80;;;;;;;27.43;52.62;96435.09;5011568;28;20466;-29
2023/07/29 03:19:43;;;;;;;5.25;1.77;;;;;;;27.54;52.19;96434.84;5013111;28;20022;-29
2023/07/29 03:22:08;;;;;;;5.32;1.60;;;;;;;27.51;52.56;96440.75;5012671;28;20022;-29
2023/07/29 03:24:34;;;;;;;2.92;1.40;;;;;;;27.43;52.72;96434.34;5014811;28;20441;-29
2023/07/29 03:26:59;;;;;;;9.75;1.75;;;;;;;27.46;52.47;96428.41;5016296;28;20044;-29
2023/07/29 03:29:25;;;;;;;5.10;1.70;;;;;;;27.53;52.80;96438.91;5016226;28;20461;-29
2023/07/29 03:31:51;;;;;;;5.50;1.80;;;;;;;27.51;52.78;96440.75;5016172;28;20030;-30
2023/07/29 03:34:16;;;;;;;9.02;2.00;;;;;;;27.37;52.86;96437.22;5016198;28;20469;-29
2023/07/29 03:36:42;;;;;;;4.32;1.75;;;;;;;27.29;53.16;96430.84;5016156;28;20421;-29
2023/07/29 03:39:07;;;;;;;7.25;2.20;;;;;;;27.37;52.82;96437.22;5015290;28;20018;-29
2023/07/29 03:41:33;;;;;;;7.45;1.65;;;;;;;27.21;53.52;96434.78;5016196;28;20057;-29
2023/07/29 03:43:58;;;;;;;5.40;2.00;;;;;;;27.36;52.99;96435.72;5016128;28;20556;-29
2023/07/29 03:46:25;;;;;;;5.13;1.88;;;;;;;27.46;52.92;96436.78;5015554;28;20105;-29
2023/07/29 03:48:50;;;;;;;2.75;1.60;;;;;;;27.43;52.80;96440.66;5015950;28;20026;-29
2023/07/29 03:51:16;;;;;;;6.10;1.80;;;;;;;27.32;53.15;96432.53;5015613;28;20159;-29
2023/07/29 03:53:41;;;;;;;3.58;1.63;;;;;;;27.18;53.54;96436.63;5015705;28;20116;-30
2023/07/29 03:56:07;;;;;;;3.22;1.55;;;;;;;27.43;52.62;96439.91;5015697;28;20018;-30
2023/07/29 03:58:33;;;;;;;5.43;1.85;;;;;;;27.43;52.40;96437.88;5015416;28;20044;-30
2023/07/29 04:00:58;;;;;;;6.78;1.90;;;;;;;27.52;52.10;96433.88;5015723;28;20466;-28
2023/07/29 04:03:24;;;;;;;5.55;1.83;;;;;;;27.43;52.76;96439.91;5015552;28;20022;-29
2023/07/29 04:05:49;;;;;;;5.80;1.73;;;;;;;27.29;53.28;96444.75;5015522;28;20029;-29
2023/07/29 04:08:15;;;;;;;3.80;1.63;;;;;;;27.32;53.10;96442.94;5015444;28;20013;-30
2023/07/29 04:10:40;;;;;;;5.15;1.98;;;;;;;27.41;52.85;96442.47;5015266;28;20025;-30
2023/07/29 04:13:06;;;;;;;5.38;2.03;;;;;;;27.42;52.86;96439.16;5015453;28;20014;-30
2023/07/29 04:15:31;;;;;;;5.53;1.90;;;;;;;27.36;53.24;96446.88;5015133;28;20014;-29
2023/07/29 04:17:57;;;;;;;4.00;1.77;;;;;;;27.35;53.02;96439.81;5015344;28;20373;-29
2023/07/29 04:20:23;;;;;;;4.10;1.85;;;;;;;27.37;52.99;96444.84;5015915;28;20369;-29
2023/07/29 04:22:49;;;;;;;4.53;1.90;;;;;;;27.57;52.58;96440.66;5015042;28;20461;-29
2023/07/29 04:25:14;;;;;;;5.85;2.05;;;;;;;27.47;52.46;96445.88;5015438;28;20078;-30
2023/07/29 04:27:39;;;;;;;6.07;1.80;;;;;;;27.45;52.77;96440.09;5014935;28;20057;-30
2023/07/29 04:30:05;;;;;;;4.85;1.90;;;;;;;27.51;52.55;96444.28;5015046;28;20040;-30
2023/07/29 04:32:31;;;;;;;4.80;1.60;;;;;;;27.43;52.90;96446.22;5014894;28;20021;-29
2023/07/29 04:34:56;;;;;;;4.88;1.80;;;;;;;27.33;52.84;96444.41;5014707;28;20359;-29
2023/07/29 04:37:22;;;;;;;4.55;1.40;;;;;;;27.44;52.50;96442.16;5015577;28;20075;-30
2023/07/29 04:39:47;;;;;;;5.47;1.70;;;;;;;27.43;52.62;96439.91;5015021;28;20014;-29
2023/07/29 04:42:13;;;;;;;6.60;1.75;;;;;;;27.40;52.57;96436.16;5015056;28;20458;-29
2023/07/29 04:44:38;;;;;;;4.63;1.63;;;;;;;27.47;52.80;96429.91;5014696;28;20047;-30
2023/07/29 04:47:04;;;;;;;3.97;1.70;;;;;;;27.64;52.28;96439.97;5014610;28;20050;-29
2023/07/29 04:49:29;;;;;;;5.43;1.75;;;;;;;27.52;52.56;96439.44;5014510;28;20528;-29
2023/07/29 04:51:55;;;;;;;5.05;1.52;;;;;;;27.56;52.63;96445.47;5014703;28;20108;-29
2023/07/29 04:54:21;;;;;;;4.65;1.73;;;;;;;27.59;52.39;96443.63;5014523;28;20036;-31
2023/07/29 04:56:46;;;;;;;3.42;1.90;;;;;;;27.54;52.83;96446.00;5013814;28;20047;-29
2023/07/29 04:59:12;;;;;;;6.32;1.90;;;;;;;27.56;52.40;96453.84;5013399;28;20018;-29
2023/07/29 05:01:38;;;;;;;5.28;1.98;;;;;;;27.42;53.18;96450.31;5014742;28;20025;-29
2023/07/29 05:04:04;;;;;;;4.85;2.15;;;;;;;27.45;53.09;96443.63;5014498;28;20022;-30
2023/07/29 05:06:29;;;;;;;5.97;2.08;;;;;;;27.55;52.85;96441.16;5014717;28;20025;-29
2023/07/29 05:08:57;;;;;;;3.40;1.70;;;;;;;27.57;52.75;96443.44;5014090;28;20437;-29
2023/07/29 05:11:25;;;;;;;3.67;1.77;;;;;;;27.49;52.82;96438.50;5014446;28;20480;-29
2023/07/29 05:13:51;;;;;;;7.00;1.98;;;;;;;27.63;52.81;96444.06;5014116;28;20052;-29
2023/07/29 05:16:16;;;;;;;4.50;1.83;;;;;;;27.62;52.69;96446.09;5014221;28;20025;-30
2023/07/29 05:18:41;;;;;;;7.70;1.98;;;;;;;27.43;53.22;96454.59;5014161;28;20026;-31
2023/07/29 05:21:08;;;;;;;4.75;1.90;;;;;;;27.23;53.90;96454.50;5021308;28;20416;-29
2023/07/29 05:23:33;;;;;;;3.72;1.67;;;;;;;27.27;54.03;96450.09;5014206;28;20024;-32
2023/07/29 05:25:59;;;;;;;4.35;1.58;;;;;;;27.59;53.27;96458.31;5014088;28;20021;-29
2023/07/29 05:28:24;;;;;;;6.75;1.70;;;;;;;27.45;53.67;96456.81;5013800;28;20044;-29
2023/07/29 05:30:50;;;;;;;4.70;1.98;;;;;;;27.43;53.92;96457.38;5014092;28;20022;-29
2023/07/29 05:33:15;;;;;;;4.18;1.80;;;;;;;27.59;53.33;96454.78;5013884;28;20022;-29
2023/07/29 05:35:41;;;;;;;5.18;1.58;;;;;;;27.41;53.77;96459.94;5014228;28;20465;-29
2023/07/29 05:38:08;;;;;;;4.25;1.85;;;;;;;27.53;53.24;96452.84;5014368;28;20026;-29
2023/07/29 05:40:33;;;;;;;3.35;1.88;;;;;;;27.50;53.70;96455.94;5013786;28;20022;-29
2023/07/29 05:42:59;;;;;;;6.93;1.90;;;;;;;27.52;53.27;96454.13;5013912;28;20044;-29
2023/07/29 05:45:24;;;;;;;6.53;1.75;;;;;;;27.52;53.71;96454.13;5013622;28;20477;-29
2023/07/29 05:47:50;;;;;;;5.80;2.08;;;;;;;27.44;53.68;96458.13;5012782;28;20104;-29
2023/07/29 05:50:15;;;;;;;5.20;1.90;;;;;;;27.42;54.10;96460.69;5013328;28;20109;-29
2023/07/29 05:52:41;;;;;;;4.45;1.77;;;;;;;27.29;54.46;96461.47;5013722;28;20026;-29
2023/07/29 05:55:07;;;;;;;5.75;2.15;;;;;;;27.39;54.27;96465.28;5013581;28;20024;-29
2023/07/29 05:57:32;;;;;;;4.60;1.95;;;;;;;27.34;54.60;96471.72;5013530;28;20026;-29
2023/07/29 05:59:58;;;;;;;3.17;1.77;;;;;;;27.45;54.29;96465.91;5013826;28;20014;-29
2023/07/29 06:02:23;;;;;;;7.05;2.28;;;;;;;27.61;53.53;96472.44;5013402;28;20041;-30
2023/07/29 06:04:49;;;;;;;4.57;2.28;;;;;;;27.57;54.28;96477.59;5013646;28;20056;-29
2023/07/29 06:07:15;;;;;;;4.70;2.22;;;;;;;27.59;53.89;96465.91;5013276;28;20079;-30
2023/07/29 06:09:40;;;;;;;5.95;2.35;;;;;;;27.56;54.14;96458.66;5013209;28;20030;-29
2023/07/29 06:12:06;;;;;;;6.38;2.85;;;;;;;27.50;54.27;96464.31;5013481;28;20053;-29
2023/07/29 06:14:32;;;;;;;3.80;1.95;;;;;;;27.51;54.59;96465.81;5013348;28;20042;-30
2023/07/29 06:16:57;;;;;;;4.40;2.00;;;;;;;27.65;54.48;96472.13;5013430;28;20505;-30
2023/07/29 06:19:23;;;;;;;4.45;2.00;;;;;;;27.52;54.61;96459.69;5017251;28;20041;-30
2023/07/29 06:21:48;;;;;;;5.25;2.25;;;;;;;27.67;54.10;96472.34;5015198;28;20466;-30
2023/07/29 06:24:13;;;;;;;5.43;1.90;;;;;;;27.66;54.42;96470.84;5013869;28;20053;-29
2023/07/29 06:26:39;;;;;;;5.15;1.90;;;;;;;27.54;54.74;96473.84;5013294;28;20025;-29
2023/07/29 06:29:04;;;;;;;5.53;1.80;;;;;;;27.60;54.53;96473.00;5012839;28;20462;-29
2023/07/29 06:31:30;;;;;;;6.47;1.98;;;;;;;27.60;54.22;96475.78;5013237;28;20025;-30
2023/07/29 06:33:55;;;;;;;3.58;1.65;;;;;;;27.67;54.10;96475.88;5013040;28;20025;-29
2023/07/29 06:36:21;;;;;;;5.07;1.80;;;;;;;27.59;53.88;96482.63;5011836;28;20053;-28
2023/07/29 06:38:47;;;;;;;4.80;2.20;;;;;;;27.69;53.35;96478.13;5013023;28;20030;-29
2023/07/29 06:41:12;;;;;;;10.38;3.22;;;;;;;27.65;53.16;96477.69;5011962;28;20053;-29
2023/07/29 06:43:38;;;;;;;5.85;2.10;;;;;;;27.66;53.33;96479.19;5013350;28;20029;-29
2023/07/29 06:46:03;;;;;;;2.83;1.70;;;;;;;27.77;52.90;96479.69;5013276;28;20026;-29
2023/07/29 06:48:29;;;;;;;6.28;2.00;;;;;;;27.72;52.85;96474.25;5013121;28;20056;-29
2023/07/29 06:50:55;;;;;;;5.78;2.08;;;;;;;27.60;53.33;96475.78;5012982;28;20021;-31
2023/07/29 06:53:21;;;;;;;5.93;1.85;;;;;;;27.68;53.30;96482.19;5012932;28;20064;-30
2023/07/29 06:55:46;;;;;;;5.28;1.95;;;;;;;27.85;52.93;96480.53;5013239;28;20064;-30
2023/07/29 06:58:12;;;;;;;6.28;1.75;;;;;;;27.85;52.92;96490.91;5014366;28;20026;-29
2023/07/29 07:00:37;;;;;;;6.30;2.10;;;;;;;27.82;52.49;96486.44;5016767;28;20021;-29
2023/07/29 07:03:03;;;;;;;10.38;7.90;;;;;;;27.95;51.77;96480.81;5016612;28;20018;-29
2023/07/29 07:05:28;;;;;;;7.18;5.25;;;;;;;27.82;51.59;96475.28;5016384;28;20444;-29
2023/07/29 07:07:53;;;;;;;8.27;4.63;;;;;;;27.46;51.04;96481.34;5016577;28;20022;-29
2023/07/29 07:10:19;;;;;;;8.68;3.22;;;;;;;27.77;50.63;96479.69;5016433;28;20057;-29
2023/07/29 07:12:44;;;;;;;9.00;3.05;;;;;;;27.75;50.59;96481.53;5016653;28;20025;-29
2023/07/29 07:15:10;;;;;;;6.22;2.50;;;;;;;27.74;51.06;96474.44;5016590;28;20033;-29
2023/07/29 07:17:36;;;;;;;6.30;2.20;;;;;;;27.69;50.93;96466.97;5016247;28;20032;-29
2023/07/29 07:20:01;;;;;;;2.67;1.70;;;;;;;27.60;50.85;96456.28;5022494;28;20022;-29
2023/07/29 07:22:27;;;;;;;4.32;1.98;;;;;;;27.61;51.51;96466.88;5016635;28;20017;-30
2023/07/29 07:24:52;;;;;;;4.90;1.80;;;;;;;27.76;50.51;96461.47;5016355;28;20420;-29
2023/07/29 07:27:18;;;;;;;2.15;1.73;;;;;;;27.77;49.02;96473.38;5015926;28;20022;-29
2023/07/29 07:29:43;;;;;;;6.68;1.90;;;;;;;27.75;49.50;96471.13;5016353;28;20049;-30
2023/07/29 07:32:09;;;;;;;6.68;2.03;;;;;;;27.92;48.93;96470.75;5015975;28;20026;-29
2023/07/29 07:34:34;;;;;;;3.50;1.40;;;;;;;27.78;49.16;96474.88;5016146;28;20092;-29
2023/07/29 07:37:00;;;;;;;4.15;1.77;;;;;;;27.88;49.31;96465.50;5015810;28;20033;-28
2023/07/29 07:39:26;;;;;;;4.68;2.00;;;;;;;27.83;47.99;96465.63;5015754;28;20021;-28
2023/07/29 07:41:51;;;;;;;3.40;1.67;;;;;;;27.87;48.57;96471.63;5015792;28;20088;-29
2023/07/29 07:44:17;;;;;;;3.42;1.55;;;;;;;28.03;47.60;96464.91;5016027;28;20028;-28
2023/07/29 07:46:43;;;;;;;5.97;1.88;;;;;;;27.92;47.73;96464.44;5015860;28;20137;-28
2023/07/29 07:49:09;;;;;;;3.25;1.67;;;;;;;27.98;47.39;96474.16;5015972;28;20100;-28
2023/07/29 07:51:34;;;;;;;3.83;1.60;;;;;;;28.03;47.62;96467.72;5016010;28;20033;-29
2023/07/29 07:54:00;;;;;;;2.03;1.45;;;;;;;28.05;46.63;96473.50;5015549;28;20034;-29
2023/07/29 07:56:25;;;;;;;7.82;1.77;;;;;;;28.17;46.43;96471.19;5015590;28;20080;-28
2023/07/29 07:58:51;;;;;;;2.47;1.50;;;;;;;28.16;46.65;96472.47;5015791;28;20026;-28
2023/07/29 08:01:16;;;;;;;2.72;1.30;;;;;;;28.21;47.02;96469.56;5015585;28;20109;-29
2023/07/29 08:03:42;;;;;;;6.38;1.90;;;;;;;28.13;47.59;96482.69;5015485;28;20069;-29
2023/07/29 08:06:07;;;;;;;3.80;1.50;;;;;;;28.21;47.63;96479.97;5015398;28;20420;-30
2023/07/29 08:08:33;;;;;;;3.30;1.52;;;;;;;28.23;47.25;96480.19;5015510;28;20113;-29
2023/07/29 08:10:58;;;;;;;4.78;2.13;;;;;;;28.29;47.09;96468.91;5014671;28;20060;-28
2023/07/29 08:13:24;;;;;;;3.45;1.40;;;;;;;28.39;46.99;96481.06;5015509;28;20021;-29
2023/07/29 08:15:51;;;;;;;4.03;1.85;;;;;;;28.38;47.00;96479.56;5015368;28;20033;-28
2023/07/29 08:18:17;;;;;;;4.28;1.60;;;;;;;28.42;46.11;96480.75;5015311;28;20026;-30
2023/07/29 08:21:03;;;;;;;3.38;1.65;;;;;;;28.32;46.21;96485.28;5022231;28;20029;-29
2023/07/29 08:23:33;;;;;;;6.20;1.70;;;;;;;28.44;45.76;96474.59;5015026;28;20022;-30
2023/07/29 08:26:04;;;;;;;4.88;1.85;;;;;;;28.40;46.12;96477.00;5015049;28;20426;-29
2023/07/29 08:28:36;;;;;;;1.58;1.27;;;;;;;28.36;45.13;96482.91;5015054;28;21980;-29
2023/07/29 08:31:02;;;;;;;3.30;1.48;;;;;;;28.42;45.23;96480.75;5015205;28;20041;-30
2023/07/29 08:33:28;;;;;;;3.65;1.70;;;;;;;28.65;44.16;96480.19;5014839;28;20394;-30
2023/07/29 08:35:54;;;;;;;3.40;1.35;;;;;;;28.51;44.39;96473.94;5014871;28;20373;-29
2023/07/29 08:38:20;;;;;;;3.38;1.55;;;;;;;28.56;44.75;96473.78;5015031;28;20099;-29
2023/07/29 08:40:50;;;;;;;3.03;1.50;;;;;;;28.57;44.80;96474.53;5014836;28;20033;-29
2023/07/29 08:43:19;;;;;;;2.92;1.55;;;;;;;28.43;45.43;96470.34;5015351;28;20026;-29
2023/07/29 08:45:45;;;;;;;5.97;1.95;;;;;;;28.67;44.86;96472.75;5014974;28;20497;-29
2023/07/29 08:48:15;;;;;;;2.55;1.42;;;;;;;28.60;44.98;96467.84;5014629;28;20042;-28
2023/07/29 08:50:42;;;;;;;4.03;1.90;;;;;;;28.66;44.73;96467.72;5015409;28;20172;-29
2023/07/29 08:53:08;;;;;;;2.70;1.65;;;;;;;28.60;44.41;96479.75;5013268;28;20022;-29
2023/07/29 08:55:34;;;;;;;5.75;2.25;;;;;;;28.57;44.68;96468.94;5014337;28;20029;-29
2023/07/29 08:58:00;;;;;;;3.40;1.50;;;;;;;28.54;44.81;96465.22;5014871;28;20409;-29
2023/07/29 09:00:27;;;;;;;3.58;1.70;;;;;;;28.57;44.44;96463.34;5013139;28;20416;-30
2023/07/29 09:02:53;;;;;;;4.07;1.70;;;;;;;28.71;43.83;96467.56;5014549;28;20032;-29
2023/07/29 09:05:21;;;;;;;1.98;1.45;;;;;;;28.47;44.37;96468.69;5014269;28;20026;-29
2023/07/29 09:07:49;;;;;;;3.40;1.70;;;;;;;28.56;44.01;96473.03;5014549;28;20018;-29
2023/07/29 09:10:15;;;;;;;7.68;2.00;;;;;;;28.73;43.71;96470.56;5014236;28;20010;-29
2023/07/29 09:12:40;;;;;;;3.88;1.55;;;;;;;28.78;43.73;96466.91;5014473;28;20030;-31
2023/07/29 09:15:06;;;;;;;3.13;1.80;;;;;;;28.76;44.25;96465.94;5014305;28;20032;-29
2023/07/29 09:17:35;;;;;;;3.47;1.42;;;;;;;28.78;43.80;96461.31;5014292;28;20109;-28
2023/07/29 09:20:01;;;;;;;3.55;1.70;;;;;;;28.69;43.61;96474.97;5014634;28;20458;-28
2023/07/29 09:22:27;;;;;;;2.78;1.50;;;;;;;28.82;43.46;96472.13;5013864;28;20029;-29
2023/07/29 09:24:53;;;;;;;3.17;1.70;;;;;;;28.89;43.43;96474.22;5014197;28;20103;-29
2023/07/29 09:27:29;;;;;;;3.75;1.88;;;;;;;28.93;43.75;96472.56;5021302;28;20628;-29
2023/07/29 09:29:56;;;;;;;3.80;2.00;;;;;;;28.73;44.06;96476.13;5013773;28;20450;-29
2023/07/29 09:32:23;;;;;;;5.93;2.78;;;;;;;28.91;44.08;96472.41;5013802;28;20044;-30
2023/07/29 09:34:49;;;;;;;5.15;1.73;;;;;;;28.87;44.01;96471.25;5014278;28;20371;-28
2023/07/29 09:37:20;;;;;;;3.53;1.77;;;;;;;28.85;43.99;96465.44;5013875;28;20025;-29
2023/07/29 09:39:47;;;;;;;4.05;2.13;;;;;;;28.91;43.87;96469.59;5013878;28;20018;-29
2023/07/29 09:42:23;;;;;;;4.97;2.42;;;;;;;29.03;44.03;96463.72;5014011;28;20026;-29
2023/07/29 09:44:49;;;;;;;4.38;1.98;;;;;;;28.97;44.31;96469.44;5013661;28;20056;-29
2023/07/29 09:47:22;;;;;;;4.53;2.60;;;;;;;29.03;44.01;96463.72;5013700;28;20037;-29
2023/07/29 09:49:50;;;;;;;6.72;2.42;;;;;;;28.89;44.37;96471.44;5014054;28;20049;-29
2023/07/29 09:52:21;;;;;;;6.05;2.20;;;;;;;29.00;43.99;96468.34;5013586;28;20053;-28
2023/07/29 09:54:47;;;;;;;3.83;2.10;;;;;;;29.03;43.66;96469.28;5021113;28;20017;-29
2023/07/29 09:57:18;;;;;;;4.13;2.30;;;;;;;29.06;43.27;96473.75;5012042;28;20429;-29
2023/07/29 09:59:54;;;;;;;5.80;2.40;;;;;;;29.11;43.24;96464.50;5013385;28;20032;-29
2023/07/29 10:02:30;;;;;;;4.85;2.60;;;;;;;28.95;43.52;96467.19;5018871;28;20487;-28
2023/07/29 10:04:56;;;;;;;4.25;2.97;;;;;;;28.95;43.68;96469.97;5013956;28;20108;-29
2023/07/29 10:07:22;;;;;;;6.63;4.05;;;;;;;29.00;43.42;96467.59;5012196;28;20026;-29
2023/07/29 10:09:49;;;;;;;7.85;4.10;;;;;;;29.01;43.65;96460.72;5013110;28;20462;-29
2023/07/29 10:12:15;;;;;;;5.22;3.50;;;;;;;28.93;44.14;96472.56;5013325;28;20022;-29
2023/07/29 10:14:42;;;;;;;5.00;3.15;;;;;;;29.05;43.49;96461.88;5012000;28;20053;-29
2023/07/29 10:17:08;;;;;;;4.32;2.65;;;;;;;29.07;43.54;96464.09;5014022;28;20014;-29
2023/07/29 10:19:36;;;;;;;3.67;2.53;;;;;;;29.05;43.50;96466.72;5013852;28;20105;-29
2023/07/29 10:22:03;;;;;;;4.80;2.60;;;;;;;29.07;43.28;96464.09;5012134;28;20461;-28
2023/07/29 10:24:33;;;;;;;5.97;2.80;;;;;;;29.11;43.33;96468.03;5013513;28;20030;-29
2023/07/29 10:27:00;;;;;;;4.65;2.80;;;;;;;29.08;43.60;96466.34;5011575;28;20538;-29
2023/07/29 10:29:32;;;;;;;3.63;2.42;;;;;;;29.07;43.32;96470.41;5013405;28;20469;-29
2023/07/29 10:32:02;;;;;;;6.97;2.73;;;;;;;29.08;43.03;96471.16;5013316;28;20428;-30
2023/07/29 10:34:28;;;;;;;4.25;2.90;;;;;;;29.16;43.08;96469.19;5024087;28;20358;-29
2023/07/29 10:36:54;;;;;;;4.95;3.42;;;;;;;29.17;43.14;96471.44;5017231;28;20172;-30
2023/07/29 10:39:20;;;;;;;4.80;3.15;;;;;;;29.10;42.45;96474.91;5017098;28;20110;-30
2023/07/29 10:42:06;;;;;;;5.53;2.63;;;;;;;29.13;42.34;96473.06;5017240;28;20426;-29
2023/07/29 10:44:41;;;;;;;3.58;2.75;;;;;;;29.08;42.31;96466.34;5017152;28;20041;-29
2023/07/29 10:47:33;;;;;;;6.32;2.78;;;;;;;29.19;42.34;96465.28;5016660;28;20181;-29
2023/07/29 10:49:59;;;;;;;5.28;2.65;;;;;;;29.36;42.15;96457.19;5016794;28;20413;-29
2023/07/29 10:52:42;;;;;;;5.22;2.50;;;;;;;29.18;42.42;96458.94;5017130;28;20018;-30
2023/07/29 10:55:28;;;;;;;4.93;2.10;;;;;;;29.20;42.30;96455.59;5017011;28;20112;-29
2023/07/29 10:58:05;;;;;;;4.25;2.33;;;;;;;29.24;42.31;96462.34;5016799;28;20097;-29
2023/07/29 11:00:32;;;;;;;5.05;2.08;;;;;;;29.21;42.49;96452.25;5016568;28;20136;-29
2023/07/29 11:03:03;;;;;;;5.38;2.80;;;;;;;29.39;42.66;96453.31;5024206;28;20022;-30
2023/07/29 11:05:49;;;;;;;3.58;2.30;;;;;;;29.35;42.90;96455.69;5016753;28;20026;-29
2023/07/29 11:08:28;;;;;;;5.45;4.15;;;;;;;29.26;43.35;96456.94;5016367;28;20025;-29
2023/07/29 11:11:12;;;;;;;6.03;3.95;;;;;;;29.34;42.72;96456.97;5016503;28;20034;-29
2023/07/29 11:13:38;;;;;;;4.68;3.20;;;;;;;29.27;43.02;96454.91;5016576;28;20018;-29
2023/07/29 11:16:05;;;;;;;4.95;3.50;;;;;;;29.35;42.59;96454.94;5016882;28;20057;-29
2023/07/29 11:18:33;;;;;;;4.95;3.00;;;;;;;29.27;42.69;96452.09;5016537;28;20068;-29
2023/07/29 11:21:00;;;;;;;6.60;3.25;;;;;;;29.32;42.25;96451.19;5015526;28;20022;-30
2023/07/29 11:23:34;;;;;;;4.38;2.50;;;;;;;29.42;41.95;96449.41;5016398;28;20022;-29
2023/07/29 11:26:01;;;;;;;5.07;2.63;;;;;;;29.41;42.45;96436.75;5016422;28;20022;-29
2023/07/29 11:28:27;;;;;;;5.63;2.50;;;;;;;29.43;42.38;96441.75;5015136;28;20370;-29
2023/07/29 11:30:54;;;;;;;3.90;2.50;;;;;;;29.41;42.64;96441.59;5016083;28;20026;-29
2023/07/29 11:33:22;;;;;;;4.15;2.35;;;;;;;29.37;42.75;96439.13;5016547;28;20071;-29